Other Surface Observations
Issued by NWS Great Falls, MT

Home | Current Version | Previous Version | Text Only | Print | Product List | Glossary On
Versions: 1 2 3 4 5 6 7 8 9 10 11 12 13 14 15 16 17 18 19 20 21 22 23 24 25 26 27 28 29 30 31 32 33 34 35 36 37 38 39 40 41 42 43 44 45 46 47 48 49 50
000
SXUS55 KTFX 241159
OSOTFX
AREA AWOS OBSERVATIONS
NATIONAL WEATHER SERVICE GREAT FALLS MT
0459 AM MST WED JAN 24 2018

METAR KPWD 241200Z AUTO 00000KT 10SM M10/M12 A2996 RMK PLENTYWOOD
METAR K1S3 241200Z AUTO 00000KT M09/M13 A2995 RMK FORSYTH
METAR KS71 241200Z AUTO 10005KT 10SM M11/M12 A2987 RMK CHINOOK
METAR K38S 241200Z AUTO 19012G17KT 10SM M01/M07 A2993 RMK DEER LODGE
METAR K3U3 241200Z AUTO 13011G19KT 10SM M02/M09 A2995 RMK ANACONDA
METAR K6S5 241200Z AUTO 15017G25KT 10SM 04/M04 A2997 RMK HAMILTON
METAR K88M 241200Z AUTO 10SM 01/M01 A2988 RMK EUREKA



USA.gov is the U.S. government's official web portal to all federal, state and local government web resources and services.